Terminal Aerodrome Forecast
Issued by NWS

Home | Current Version | Previous Version | Text Only | Print | Product List | Glossary On
Versions: 1 2 3 4 5 6 7 8 9 10 11 12
000
FTUS46 KSGX 241700
TAFONT
TAF
KONT 241721Z 2418/2524 VRB04KT P6SM SCT250
     FM242000 26011G18KT P6SM SCT250
     FM250400 VRB04KT P6SM SCT250=

USA.gov is the U.S. government's official web portal to all federal, state and local government web resources and services.